sensor_id;sensor_type;location;lat;lon;timestamp;P1;durP1;ratioP1;P2;durP2;ratioP2
4428;SDS011;2227;47.810;8.810;2022-07-04T03:49:47;4.03;;;2.25;;
4428;SDS011;2227;47.810;8.810;2022-07-04T03:52:14;3.50;;;2.30;;
4428;SDS011;2227;47.810;8.810;2022-07-04T03:54:41;5.68;;;2.70;;
4428;SDS011;2227;47.810;8.810;2022-07-04T03:57:09;3.95;;;2.15;;
4428;SDS011;2227;47.810;8.810;2022-07-04T03:59:37;6.10;;;2.47;;
4428;SDS011;2227;47.810;8.810;2022-07-04T04:02:04;3.90;;;2.40;;
4428;SDS011;2227;47.810;8.810;2022-07-04T04:04:31;5.22;;;2.28;;
4428;SDS011;2227;47.810;8.810;2022-07-04T04:07:16;4.22;;;2.33;;
4428;SDS011;2227;47.810;8.810;2022-07-04T04:09:43;4.05;;;2.13;;
4428;SDS011;2227;47.810;8.810;2022-07-04T04:12:09;5.85;;;3.03;;
4428;SDS011;2227;47.810;8.810;2022-07-04T04:14:36;3.95;;;2.50;;
4428;SDS011;2227;47.810;8.810;2022-07-04T04:17:03;3.88;;;2.20;;
4428;SDS011;2227;47.810;8.810;2022-07-04T04:19:30;6.07;;;2.55;;
4428;SDS011;2227;47.810;8.810;2022-07-04T04:21:57;4.90;;;2.97;;
4428;SDS011;2227;47.810;8.810;2022-07-04T04:24:24;4.90;;;2.65;;
4428;SDS011;2227;47.810;8.810;2022-07-04T04:26:51;4.00;;;2.92;;
4428;SDS011;2227;47.810;8.810;2022-07-04T04:29:18;3.90;;;2.58;;
4428;SDS011;2227;47.810;8.810;2022-07-04T04:31:45;6.18;;;2.97;;
4428;SDS011;2227;47.810;8.810;2022-07-04T04:34:11;5.05;;;3.03;;
4428;SDS011;2227;47.810;8.810;2022-07-04T04:36:38;4.60;;;2.85;;
4428;SDS011;2227;47.810;8.810;2022-07-04T04:39:05;5.45;;;2.92;;
4428;SDS011;2227;47.810;8.810;2022-07-04T04:41:32;5.00;;;3.03;;
4428;SDS011;2227;47.810;8.810;2022-07-04T04:43:58;5.10;;;3.22;;
4428;SDS011;2227;47.810;8.810;2022-07-04T04:46:25;5.00;;;3.25;;
4428;SDS011;2227;47.810;8.810;2022-07-04T04:48:52;4.72;;;2.78;;
4428;SDS011;2227;47.810;8.810;2022-07-04T04:51:19;4.60;;;2.95;;
4428;SDS011;2227;47.810;8.810;2022-07-04T04:53:45;4.95;;;2.60;;
4428;SDS011;2227;47.810;8.810;2022-07-04T04:56:12;5.20;;;2.97;;
4428;SDS011;2227;47.810;8.810;2022-07-04T04:58:39;7.45;;;3.17;;
4428;SDS011;2227;47.810;8.810;2022-07-04T05:01:06;5.18;;;2.90;;
4428;SDS011;2227;47.810;8.810;2022-07-04T05:03:53;5.13;;;3.05;;
4428;SDS011;2227;47.810;8.810;2022-07-04T05:06:19;6.47;;;3.22;;
4428;SDS011;2227;47.810;8.810;2022-07-04T05:08:46;6.53;;;3.20;;
4428;SDS011;2227;47.810;8.810;2022-07-04T05:11:14;5.43;;;2.72;;
4428;SDS011;2227;47.810;8.810;2022-07-04T05:13:41;5.22;;;2.75;;
4428;SDS011;2227;47.810;8.810;2022-07-04T05:16:07;3.90;;;2.60;;
4428;SDS011;2227;47.810;8.810;2022-07-04T05:18:34;5.13;;;2.67;;
4428;SDS011;2227;47.810;8.810;2022-07-04T05:21:01;3.72;;;2.85;;
4428;SDS011;2227;47.810;8.810;2022-07-04T05:23:28;5.97;;;2.80;;
4428;SDS011;2227;47.810;8.810;2022-07-04T05:25:55;6.35;;;3.47;;
4428;SDS011;2227;47.810;8.810;2022-07-04T05:28:21;5.75;;;2.45;;
4428;SDS011;2227;47.810;8.810;2022-07-04T05:30:48;7.18;;;2.90;;
4428;SDS011;2227;47.810;8.810;2022-07-04T05:33:15;4.50;;;2.92;;
4428;SDS011;2227;47.810;8.810;2022-07-04T05:35:42;5.38;;;3.38;;
4428;SDS011;2227;47.810;8.810;2022-07-04T05:38:09;5.95;;;2.95;;
4428;SDS011;2227;47.810;8.810;2022-07-04T05:40:36;5.57;;;3.20;;
4428;SDS011;2227;47.810;8.810;2022-07-04T05:43:03;5.07;;;3.45;;
4428;SDS011;2227;47.810;8.810;2022-07-04T05:45:29;5.38;;;3.42;;
4428;SDS011;2227;47.810;8.810;2022-07-04T05:47:56;4.88;;;3.35;;
4428;SDS011;2227;47.810;8.810;2022-07-04T05:50:23;4.30;;;2.75;;
4428;SDS011;2227;47.810;8.810;2022-07-04T05:52:56;4.27;;;2.97;;
4428;SDS011;2227;47.810;8.810;2022-07-04T05:55:22;5.35;;;3.40;;
4428;SDS011;2227;47.810;8.810;2022-07-04T05:57:49;4.97;;;2.83;;
4428;SDS011;2227;47.810;8.810;2022-07-04T06:00:16;4.10;;;2.80;;
4428;SDS011;2227;47.810;8.810;2022-07-04T06:02:43;5.60;;;3.03;;
4428;SDS011;2227;47.810;8.810;2022-07-04T06:05:10;4.13;;;3.20;;
4428;SDS011;2227;47.810;8.810;2022-07-04T06:07:36;5.75;;;2.90;;
4428;SDS011;2227;47.810;8.810;2022-07-04T06:10:04;5.80;;;3.03;;
4428;SDS011;2227;47.810;8.810;2022-07-04T06:12:32;5.13;;;2.80;;
4428;SDS011;2227;47.810;8.810;2022-07-04T06:14:59;5.03;;;2.97;;
4428;SDS011;2227;47.810;8.810;2022-07-04T06:17:26;3.72;;;2.85;;
4428;SDS011;2227;47.810;8.810;2022-07-04T06:19:53;5.55;;;2.97;;
4428;SDS011;2227;47.810;8.810;2022-07-04T06:22:20;4.18;;;3.13;;
4428;SDS011;2227;47.810;8.810;2022-07-04T06:24:50;6.13;;;2.75;;
4428;SDS011;2227;47.810;8.810;2022-07-04T06:27:17;4.25;;;2.80;;
4428;SDS011;2227;47.810;8.810;2022-07-04T06:29:44;4.50;;;3.20;;
4428;SDS011;2227;47.810;8.810;2022-07-04T06:32:11;4.15;;;2.80;;
4428;SDS011;2227;47.810;8.810;2022-07-04T06:34:38;6.30;;;3.33;;
4428;SDS011;2227;47.810;8.810;2022-07-04T06:37:23;5.63;;;3.15;;
4428;SDS011;2227;47.810;8.810;2022-07-04T06:39:50;4.55;;;2.88;;
4428;SDS011;2227;47.810;8.810;2022-07-04T06:42:17;6.50;;;3.47;;
4428;SDS011;2227;47.810;8.810;2022-07-04T06:44:44;4.88;;;3.22;;
4428;SDS011;2227;47.810;8.810;2022-07-04T06:47:11;7.13;;;3.83;;
4428;SDS011;2227;47.810;8.810;2022-07-04T06:49:38;6.68;;;3.55;;
4428;SDS011;2227;47.810;8.810;2022-07-04T06:52:05;5.28;;;3.03;;
4428;SDS011;2227;47.810;8.810;2022-07-04T06:54:31;4.25;;;3.15;;
4428;SDS011;2227;47.810;8.810;2022-07-04T06:56:58;4.93;;;3.40;;
4428;SDS011;2227;47.810;8.810;2022-07-04T06:59:45;6.25;;;3.00;;
4428;SDS011;2227;47.810;8.810;2022-07-04T07:02:12;6.75;;;3.08;;
4428;SDS011;2227;47.810;8.810;2022-07-04T07:04:39;3.90;;;2.85;;
4428;SDS011;2227;47.810;8.810;2022-07-04T07:07:07;5.75;;;3.40;;
4428;SDS011;2227;47.810;8.810;2022-07-04T07:09:34;5.00;;;3.10;;
4428;SDS011;2227;47.810;8.810;2022-07-04T07:12:01;8.45;;;3.10;;
4428;SDS011;2227;47.810;8.810;2022-07-04T07:14:28;6.57;;;3.70;;
4428;SDS011;2227;47.810;8.810;2022-07-04T07:16:56;5.63;;;3.17;;
4428;SDS011;2227;47.810;8.810;2022-07-04T07:19:23;5.68;;;3.13;;
4428;SDS011;2227;47.810;8.810;2022-07-04T07:21:49;5.38;;;3.17;;
4428;SDS011;2227;47.810;8.810;2022-07-04T07:24:16;6.22;;;3.53;;
4428;SDS011;2227;47.810;8.810;2022-07-04T07:26:43;4.55;;;3.38;;
4428;SDS011;2227;47.810;8.810;2022-07-04T07:29:10;7.22;;;4.13;;
4428;SDS011;2227;47.810;8.810;2022-07-04T07:31:37;6.40;;;3.17;;
4428;SDS011;2227;47.810;8.810;2022-07-04T07:34:03;6.18;;;3.28;;
4428;SDS011;2227;47.810;8.810;2022-07-04T07:36:30;5.65;;;3.10;;
4428;SDS011;2227;47.810;8.810;2022-07-04T07:38:57;5.35;;;2.50;;
4428;SDS011;2227;47.810;8.810;2022-07-04T07:41:24;5.32;;;2.75;;
4428;SDS011;2227;47.810;8.810;2022-07-04T07:43:50;5.13;;;2.95;;
4428;SDS011;2227;47.810;8.810;2022-07-04T07:46:17;6.10;;;2.90;;
4428;SDS011;2227;47.810;8.810;2022-07-04T07:48:44;5.88;;;2.65;;
4428;SDS011;2227;47.810;8.810;2022-07-04T07:51:11;5.53;;;2.33;;
4428;SDS011;2227;47.810;8.810;2022-07-04T07:53:40;4.32;;;2.38;;
4428;SDS011;2227;47.810;8.810;2022-07-04T07:56:27;5.90;;;2.60;;
4428;SDS011;2227;47.810;8.810;2022-07-04T07:58:54;4.75;;;2.22;;
4428;SDS011;2227;47.810;8.810;2022-07-04T08:01:21;4.90;;;2.03;;
4428;SDS011;2227;47.810;8.810;2022-07-04T08:03:48;4.53;;;2.38;;
4428;SDS011;2227;47.810;8.810;2022-07-04T08:06:38;5.63;;;2.50;;
4428;SDS011;2227;47.810;8.810;2022-07-04T08:09:05;7.60;;;2.45;;
4428;SDS011;2227;47.810;8.810;2022-07-04T08:11:33;6.60;;;2.83;;
4428;SDS011;2227;47.810;8.810;2022-07-04T08:13:59;5.95;;;2.50;;
4428;SDS011;2227;47.810;8.810;2022-07-04T08:16:26;6.20;;;2.88;;
4428;SDS011;2227;47.810;8.810;2022-07-04T08:19:13;5.07;;;2.58;;
4428;SDS011;2227;47.810;8.810;2022-07-04T08:21:40;4.10;;;2.47;;
4428;SDS011;2227;47.810;8.810;2022-07-04T08:24:26;6.15;;;2.50;;
4428;SDS011;2227;47.810;8.810;2022-07-04T08:26:53;4.55;;;2.42;;
4428;SDS011;2227;47.810;8.810;2022-07-04T08:29:20;4.10;;;2.70;;
4428;SDS011;2227;47.810;8.810;2022-07-04T08:31:47;3.65;;;2.35;;
4428;SDS011;2227;47.810;8.810;2022-07-04T08:34:17;6.07;;;2.58;;
4428;SDS011;2227;47.810;8.810;2022-07-04T08:36:44;4.00;;;2.40;;
4428;SDS011;2227;47.810;8.810;2022-07-04T08:39:11;4.05;;;2.42;;
4428;SDS011;2227;47.810;8.810;2022-07-04T08:41:39;7.47;;;2.80;;
4428;SDS011;2227;47.810;8.810;2022-07-04T08:44:07;5.18;;;2.47;;
4428;SDS011;2227;47.810;8.810;2022-07-04T08:46:38;4.63;;;2.20;;
4428;SDS011;2227;47.810;8.810;2022-07-04T08:49:09;4.55;;;2.83;;
4428;SDS011;2227;47.810;8.810;2022-07-04T08:52:04;5.13;;;2.33;;
4428;SDS011;2227;47.810;8.810;2022-07-04T08:54:32;4.72;;;2.10;;
4428;SDS011;2227;47.810;8.810;2022-07-04T08:57:18;3.38;;;2.28;;
4428;SDS011;2227;47.810;8.810;2022-07-04T09:00:04;3.80;;;1.90;;
4428;SDS011;2227;47.810;8.810;2022-07-04T09:02:33;3.35;;;1.80;;
4428;SDS011;2227;47.810;8.810;2022-07-04T09:05:00;6.70;;;2.10;;
4428;SDS011;2227;47.810;8.810;2022-07-04T09:07:28;4.13;;;1.80;;
4428;SDS011;2227;47.810;8.810;2022-07-04T09:09:55;5.05;;;2.28;;
4428;SDS011;2227;47.810;8.810;2022-07-04T09:12:23;3.63;;;1.90;;
4428;SDS011;2227;47.810;8.810;2022-07-04T09:14:50;3.72;;;2.20;;
4428;SDS011;2227;47.810;8.810;2022-07-04T09:17:20;5.50;;;2.30;;
4428;SDS011;2227;47.810;8.810;2022-07-04T09:20:09;3.90;;;2.30;;
4428;SDS011;2227;47.810;8.810;2022-07-04T09:22:38;6.13;;;2.55;;
4428;SDS011;2227;47.810;8.810;2022-07-04T09:25:05;3.13;;;1.85;;
4428;SDS011;2227;47.810;8.810;2022-07-04T09:27:36;4.10;;;1.80;;
4428;SDS011;2227;47.810;8.810;2022-07-04T09:30:04;3.63;;;2.10;;
4428;SDS011;2227;47.810;8.810;2022-07-04T09:32:39;5.03;;;2.38;;
4428;SDS011;2227;47.810;8.810;2022-07-04T09:35:21;3.65;;;1.88;;
4428;SDS011;2227;47.810;8.810;2022-07-04T09:37:50;4.82;;;2.38;;
4428;SDS011;2227;47.810;8.810;2022-07-04T09:43:00;3.83;;;2.13;;
4428;SDS011;2227;47.810;8.810;2022-07-04T09:45:36;6.63;;;2.65;;
4428;SDS011;2227;47.810;8.810;2022-07-04T09:48:23;7.15;;;2.10;;
4428;SDS011;2227;47.810;8.810;2022-07-04T09:50:50;8.05;;;2.58;;
4428;SDS011;2227;47.810;8.810;2022-07-04T09:53:17;3.47;;;2.47;;
4428;SDS011;2227;47.810;8.810;2022-07-04T09:55:44;5.38;;;2.35;;
4428;SDS011;2227;47.810;8.810;2022-07-04T09:58:15;3.67;;;2.45;;
4428;SDS011;2227;47.810;8.810;2022-07-04T10:00:42;4.45;;;2.60;;
4428;SDS011;2227;47.810;8.810;2022-07-04T10:06:12;6.80;;;2.80;;
4428;SDS011;2227;47.810;8.810;2022-07-04T10:08:42;8.63;;;2.90;;
4428;SDS011;2227;47.810;8.810;2022-07-04T10:11:10;7.00;;;2.60;;
4428;SDS011;2227;47.810;8.810;2022-07-04T10:13:44;3.47;;;1.70;;
4428;SDS011;2227;47.810;8.810;2022-07-04T10:16:11;3.65;;;2.00;;
4428;SDS011;2227;47.810;8.810;2022-07-04T10:18:41;5.35;;;1.90;;
4428;SDS011;2227;47.810;8.810;2022-07-04T10:21:09;7.38;;;2.00;;
4428;SDS011;2227;47.810;8.810;2022-07-04T10:23:36;5.63;;;2.40;;
4428;SDS011;2227;47.810;8.810;2022-07-04T10:26:04;4.55;;;1.90;;
4428;SDS011;2227;47.810;8.810;2022-07-04T10:28:32;3.78;;;1.58;;
4428;SDS011;2227;47.810;8.810;2022-07-04T10:30:59;6.32;;;2.05;;
4428;SDS011;2227;47.810;8.810;2022-07-04T10:33:28;3.28;;;1.80;;
4428;SDS011;2227;47.810;8.810;2022-07-04T10:38:23;2.80;;;1.80;;
4428;SDS011;2227;47.810;8.810;2022-07-04T10:41:04;2.87;;;1.70;;
4428;SDS011;2227;47.810;8.810;2022-07-04T10:51:36;2.78;;;1.50;;
4428;SDS011;2227;47.810;8.810;2022-07-04T10:54:06;3.25;;;1.40;;
4428;SDS011;2227;47.810;8.810;2022-07-04T10:56:37;3.00;;;1.40;;
4428;SDS011;2227;47.810;8.810;2022-07-04T10:59:18;3.47;;;1.63;;
4428;SDS011;2227;47.810;8.810;2022-07-04T11:04:54;3.00;;;1.30;;
4428;SDS011;2227;47.810;8.810;2022-07-04T11:17:55;2.75;;;1.63;;
4428;SDS011;2227;47.810;8.810;2022-07-04T11:20:23;3.33;;;1.58;;
4428;SDS011;2227;47.810;8.810;2022-07-04T11:22:51;5.10;;;2.08;;
4428;SDS011;2227;47.810;8.810;2022-07-04T11:25:18;3.15;;;2.00;;
4428;SDS011;2227;47.810;8.810;2022-07-04T11:27:45;3.67;;;1.70;;
4428;SDS011;2227;47.810;8.810;2022-07-04T11:30:11;2.70;;;1.70;;
4428;SDS011;2227;47.810;8.810;2022-07-04T11:32:41;3.40;;;1.60;;
4428;SDS011;2227;47.810;8.810;2022-07-04T11:35:08;3.72;;;1.42;;
4428;SDS011;2227;47.810;8.810;2022-07-04T11:37:35;2.55;;;1.58;;
4428;SDS011;2227;47.810;8.810;2022-07-04T11:40:02;4.30;;;1.50;;
4428;SDS011;2227;47.810;8.810;2022-07-04T11:45:52;3.05;;;1.50;;
4428;SDS011;2227;47.810;8.810;2022-07-04T11:50:49;3.05;;;1.50;;
4428;SDS011;2227;47.810;8.810;2022-07-04T11:53:16;2.53;;;1.48;;
4428;SDS011;2227;47.810;8.810;2022-07-04T11:55:56;3.45;;;1.80;;
4428;SDS011;2227;47.810;8.810;2022-07-04T11:58:24;2.42;;;1.52;;
4428;SDS011;2227;47.810;8.810;2022-07-04T12:00:51;2.90;;;1.60;;
4428;SDS011;2227;47.810;8.810;2022-07-04T12:03:18;3.17;;;1.80;;
4428;SDS011;2227;47.810;8.810;2022-07-04T12:05:45;3.15;;;1.88;;
4428;SDS011;2227;47.810;8.810;2022-07-04T12:08:12;2.38;;;1.52;;
4428;SDS011;2227;47.810;8.810;2022-07-04T12:10:54;3.75;;;1.73;;
4428;SDS011;2227;47.810;8.810;2022-07-04T12:13:21;4.90;;;1.85;;
4428;SDS011;2227;47.810;8.810;2022-07-04T12:15:49;2.53;;;1.70;;
4428;SDS011;2227;47.810;8.810;2022-07-04T12:20:46;3.13;;;1.70;;
4428;SDS011;2227;47.810;8.810;2022-07-04T12:23:14;3.22;;;1.80;;
4428;SDS011;2227;47.810;8.810;2022-07-04T12:25:43;2.45;;;1.60;;
4428;SDS011;2227;47.810;8.810;2022-07-04T12:28:12;3.92;;;1.90;;
4428;SDS011;2227;47.810;8.810;2022-07-04T12:30:50;3.45;;;1.48;;
4428;SDS011;2227;47.810;8.810;2022-07-04T12:33:21;4.13;;;1.98;;
4428;SDS011;2227;47.810;8.810;2022-07-04T12:35:54;2.25;;;1.77;;
4428;SDS011;2227;47.810;8.810;2022-07-04T12:41:13;3.40;;;1.67;;
4428;SDS011;2227;47.810;8.810;2022-07-04T12:43:48;3.88;;;1.90;;
4428;SDS011;2227;47.810;8.810;2022-07-04T12:46:30;4.47;;;2.00;;
4428;SDS011;2227;47.810;8.810;2022-07-04T12:49:01;2.88;;;1.60;;
4428;SDS011;2227;47.810;8.810;2022-07-04T12:51:31;2.40;;;1.65;;
4428;SDS011;2227;47.810;8.810;2022-07-04T12:54:06;4.32;;;1.88;;
4428;SDS011;2227;47.810;8.810;2022-07-04T12:56:35;3.10;;;1.95;;
4428;SDS011;2227;47.810;8.810;2022-07-04T12:59:08;3.47;;;1.70;;
4428;SDS011;2227;47.810;8.810;2022-07-04T13:01:38;2.85;;;1.60;;
4428;SDS011;2227;47.810;8.810;2022-07-04T13:04:06;3.80;;;1.60;;
4428;SDS011;2227;47.810;8.810;2022-07-04T13:06:33;2.78;;;1.70;;
4428;SDS011;2227;47.810;8.810;2022-07-04T13:09:01;3.28;;;1.90;;
4428;SDS011;2227;47.810;8.810;2022-07-04T13:11:29;4.40;;;1.70;;
4428;SDS011;2227;47.810;8.810;2022-07-04T13:14:14;4.50;;;1.70;;
4428;SDS011;2227;47.810;8.810;2022-07-04T13:16:41;3.55;;;1.90;;
4428;SDS011;2227;47.810;8.810;2022-07-04T13:19:08;2.20;;;1.65;;
4428;SDS011;2227;47.810;8.810;2022-07-04T13:21:35;3.70;;;1.88;;
4428;SDS011;2227;47.810;8.810;2022-07-04T13:24:02;3.95;;;1.77;;
4428;SDS011;2227;47.810;8.810;2022-07-04T13:26:29;2.88;;;1.40;;
4428;SDS011;2227;47.810;8.810;2022-07-04T13:28:58;4.32;;;1.90;;
4428;SDS011;2227;47.810;8.810;2022-07-04T13:31:27;2.60;;;1.55;;
4428;SDS011;2227;47.810;8.810;2022-07-04T13:33:54;4.80;;;1.92;;
4428;SDS011;2227;47.810;8.810;2022-07-04T13:36:22;5.43;;;1.88;;
4428;SDS011;2227;47.810;8.810;2022-07-04T13:38:48;4.93;;;1.60;;
4428;SDS011;2227;47.810;8.810;2022-07-04T13:41:30;5.03;;;1.80;;
4428;SDS011;2227;47.810;8.810;2022-07-04T13:44:01;3.60;;;1.60;;
4428;SDS011;2227;47.810;8.810;2022-07-04T13:46:28;5.78;;;1.45;;
4428;SDS011;2227;47.810;8.810;2022-07-04T13:48:55;3.92;;;1.95;;
4428;SDS011;2227;47.810;8.810;2022-07-04T13:51:22;4.18;;;1.73;;
4428;SDS011;2227;47.810;8.810;2022-07-04T13:53:49;3.88;;;1.98;;
4428;SDS011;2227;47.810;8.810;2022-07-04T13:56:16;5.65;;;2.10;;
4428;SDS011;2227;47.810;8.810;2022-07-04T13:58:44;4.38;;;2.15;;
4428;SDS011;2227;47.810;8.810;2022-07-04T14:01:12;3.25;;;1.70;;
4428;SDS011;2227;47.810;8.810;2022-07-04T14:03:42;3.35;;;1.58;;
4428;SDS011;2227;47.810;8.810;2022-07-04T14:06:08;3.17;;;2.05;;
4428;SDS011;2227;47.810;8.810;2022-07-04T14:08:36;2.13;;;1.63;;
4428;SDS011;2227;47.810;8.810;2022-07-04T14:11:03;6.85;;;2.92;;
4428;SDS011;2227;47.810;8.810;2022-07-04T14:13:29;4.55;;;1.95;;
4428;SDS011;2227;47.810;8.810;2022-07-04T14:15:56;4.20;;;1.98;;
4428;SDS011;2227;47.810;8.810;2022-07-04T14:18:23;3.13;;;1.88;;
4428;SDS011;2227;47.810;8.810;2022-07-04T14:20:50;2.30;;;1.60;;
4428;SDS011;2227;47.810;8.810;2022-07-04T14:23:17;4.05;;;2.00;;
4428;SDS011;2227;47.810;8.810;2022-07-04T14:26:03;5.15;;;2.45;;
4428;SDS011;2227;47.810;8.810;2022-07-04T14:28:31;4.72;;;2.15;;
4428;SDS011;2227;47.810;8.810;2022-07-04T14:30:59;4.93;;;1.92;;
4428;SDS011;2227;47.810;8.810;2022-07-04T14:33:25;10.55;;;9.35;;
4428;SDS011;2227;47.810;8.810;2022-07-04T14:35:52;5.22;;;2.65;;
4428;SDS011;2227;47.810;8.810;2022-07-04T14:38:19;4.97;;;3.03;;
4428;SDS011;2227;47.810;8.810;2022-07-04T14:40:46;6.72;;;2.60;;
4428;SDS011;2227;47.810;8.810;2022-07-04T14:43:16;3.30;;;1.67;;
4428;SDS011;2227;47.810;8.810;2022-07-04T14:45:46;3.47;;;1.80;;
4428;SDS011;2227;47.810;8.810;2022-07-04T14:48:13;4.57;;;1.85;;
4428;SDS011;2227;47.810;8.810;2022-07-04T14:50:41;4.28;;;2.15;;
4428;SDS011;2227;47.810;8.810;2022-07-04T14:53:08;5.25;;;2.00;;
4428;SDS011;2227;47.810;8.810;2022-07-04T14:55:37;4.90;;;2.50;;
4428;SDS011;2227;47.810;8.810;2022-07-04T14:58:03;6.40;;;2.17;;
4428;SDS011;2227;47.810;8.810;2022-07-04T15:00:30;3.65;;;2.13;;
4428;SDS011;2227;47.810;8.810;2022-07-04T15:02:57;4.68;;;2.08;;
4428;SDS011;2227;47.810;8.810;2022-07-04T15:05:24;5.32;;;2.17;;
4428;SDS011;2227;47.810;8.810;2022-07-04T15:07:51;6.68;;;2.85;;
4428;SDS011;2227;47.810;8.810;2022-07-04T15:10:22;4.30;;;2.40;;
4428;SDS011;2227;47.810;8.810;2022-07-04T15:13:09;5.13;;;2.17;;
4428;SDS011;2227;47.810;8.810;2022-07-04T15:15:36;5.40;;;2.45;;
4428;SDS011;2227;47.810;8.810;2022-07-04T15:18:09;5.90;;;2.42;;
4428;SDS011;2227;47.810;8.810;2022-07-04T15:20:36;4.65;;;2.55;;
4428;SDS011;2227;47.810;8.810;2022-07-04T15:23:23;4.28;;;2.28;;
4428;SDS011;2227;47.810;8.810;2022-07-04T15:26:08;3.00;;;2.13;;
4428;SDS011;2227;47.810;8.810;2022-07-04T15:28:35;4.95;;;2.45;;
4428;SDS011;2227;47.810;8.810;2022-07-04T15:31:02;5.65;;;2.42;;
4428;SDS011;2227;47.810;8.810;2022-07-04T15:33:29;5.20;;;2.30;;
4428;SDS011;2227;47.810;8.810;2022-07-04T15:35:57;5.88;;;2.33;;
4428;SDS011;2227;47.810;8.810;2022-07-04T15:38:24;4.72;;;2.00;;
4428;SDS011;2227;47.810;8.810;2022-07-04T15:40:51;4.55;;;1.88;;
4428;SDS011;2227;47.810;8.810;2022-07-04T15:43:18;5.00;;;2.20;;
4428;SDS011;2227;47.810;8.810;2022-07-04T15:45:45;4.88;;;1.92;;
4428;SDS011;2227;47.810;8.810;2022-07-04T15:48:12;4.43;;;2.35;;
4428;SDS011;2227;47.810;8.810;2022-07-04T15:50:39;5.07;;;1.73;;
4428;SDS011;2227;47.810;8.810;2022-07-04T15:53:05;4.53;;;2.20;;
4428;SDS011;2227;47.810;8.810;2022-07-04T15:55:32;4.65;;;2.15;;
4428;SDS011;2227;47.810;8.810;2022-07-04T15:57:59;4.00;;;2.00;;
4428;SDS011;2227;47.810;8.810;2022-07-04T16:00:26;5.32;;;2.30;;
4428;SDS011;2227;47.810;8.810;2022-07-04T16:02:52;5.05;;;2.03;;
4428;SDS011;2227;47.810;8.810;2022-07-04T16:05:19;4.95;;;2.22;;
4428;SDS011;2227;47.810;8.810;2022-07-04T16:07:46;3.80;;;2.20;;
4428;SDS011;2227;47.810;8.810;2022-07-04T16:10:13;4.03;;;2.20;;
4428;SDS011;2227;47.810;8.810;2022-07-04T16:12:40;3.63;;;2.22;;
4428;SDS011;2227;47.810;8.810;2022-07-04T16:15:07;3.45;;;2.20;;
4428;SDS011;2227;47.810;8.810;2022-07-04T16:17:34;5.30;;;2.25;;
4428;SDS011;2227;47.810;8.810;2022-07-04T16:20:02;6.53;;;2.15;;
4428;SDS011;2227;47.810;8.810;2022-07-04T16:22:29;4.75;;;2.47;;
4428;SDS011;2227;47.810;8.810;2022-07-04T16:24:56;4.43;;;2.00;;
4428;SDS011;2227;47.810;8.810;2022-07-04T16:27:26;5.50;;;2.33;;
4428;SDS011;2227;47.810;8.810;2022-07-04T16:29:53;3.45;;;2.13;;
4428;SDS011;2227;47.810;8.810;2022-07-04T16:32:19;6.05;;;2.38;;
4428;SDS011;2227;47.810;8.810;2022-07-04T16:34:46;3.92;;;2.20;;
4428;SDS011;2227;47.810;8.810;2022-07-04T16:37:13;4.07;;;2.10;;
4428;SDS011;2227;47.810;8.810;2022-07-04T16:39:40;6.10;;;2.38;;
4428;SDS011;2227;47.810;8.810;2022-07-04T16:42:07;3.30;;;2.00;;
4428;SDS011;2227;47.810;8.810;2022-07-04T16:44:33;3.53;;;1.83;;
4428;SDS011;2227;47.810;8.810;2022-07-04T16:47:01;5.05;;;1.98;;
4428;SDS011;2227;47.810;8.810;2022-07-04T16:49:27;4.15;;;2.30;;
4428;SDS011;2227;47.810;8.810;2022-07-04T16:52:09;3.85;;;2.10;;
4428;SDS011;2227;47.810;8.810;2022-07-04T16:54:36;4.80;;;2.00;;
4428;SDS011;2227;47.810;8.810;2022-07-04T16:57:03;3.45;;;1.85;;
4428;SDS011;2227;47.810;8.810;2022-07-04T16:59:30;3.72;;;2.08;;
4428;SDS011;2227;47.810;8.810;2022-07-04T17:01:58;4.40;;;2.08;;
4428;SDS011;2227;47.810;8.810;2022-07-04T17:04:25;5.43;;;2.22;;
4428;SDS011;2227;47.810;8.810;2022-07-04T17:06:52;5.53;;;1.98;;
4428;SDS011;2227;47.810;8.810;2022-07-04T17:09:19;4.13;;;2.45;;
4428;SDS011;2227;47.810;8.810;2022-07-04T17:11:46;3.50;;;2.08;;
4428;SDS011;2227;47.810;8.810;2022-07-04T17:14:12;5.10;;;2.78;;
4428;SDS011;2227;47.810;8.810;2022-07-04T17:16:39;6.30;;;2.80;;
4428;SDS011;2227;47.810;8.810;2022-07-04T17:19:06;3.92;;;2.45;;
4428;SDS011;2227;47.810;8.810;2022-07-04T17:21:38;5.10;;;2.53;;
4428;SDS011;2227;47.810;8.810;2022-07-04T17:24:05;5.93;;;2.95;;
4428;SDS011;2227;47.810;8.810;2022-07-04T17:26:32;5.97;;;2.75;;
4428;SDS011;2227;47.810;8.810;2022-07-04T17:29:19;6.43;;;2.83;;
4428;SDS011;2227;47.810;8.810;2022-07-04T17:31:46;4.38;;;2.72;;
4428;SDS011;2227;47.810;8.810;2022-07-04T17:34:13;5.03;;;2.65;;
4428;SDS011;2227;47.810;8.810;2022-07-04T17:36:41;5.25;;;2.80;;
4428;SDS011;2227;47.810;8.810;2022-07-04T17:39:07;5.85;;;2.80;;
4428;SDS011;2227;47.810;8.810;2022-07-04T17:41:34;3.47;;;2.40;;
4428;SDS011;2227;47.810;8.810;2022-07-04T17:44:12;4.00;;;2.88;;
4428;SDS011;2227;47.810;8.810;2022-07-04T17:46:40;5.28;;;2.95;;
4428;SDS011;2227;47.810;8.810;2022-07-04T17:49:07;5.15;;;3.00;;
4428;SDS011;2227;47.810;8.810;2022-07-04T17:51:38;4.45;;;2.58;;
4428;SDS011;2227;47.810;8.810;2022-07-04T17:54:06;6.22;;;2.80;;
4428;SDS011;2227;47.810;8.810;2022-07-04T17:56:34;8.63;;;3.05;;
4428;SDS011;2227;47.810;8.810;2022-07-04T17:59:01;4.50;;;2.63;;
4428;SDS011;2227;47.810;8.810;2022-07-04T18:01:28;5.82;;;2.85;;
4428;SDS011;2227;47.810;8.810;2022-07-04T18:03:55;6.20;;;2.65;;
4428;SDS011;2227;47.810;8.810;2022-07-04T18:06:24;5.20;;;2.75;;
4428;SDS011;2227;47.810;8.810;2022-07-04T18:08:52;4.20;;;2.55;;
4428;SDS011;2227;47.810;8.810;2022-07-04T18:11:19;9.02;;;2.60;;
4428;SDS011;2227;47.810;8.810;2022-07-04T18:13:46;5.30;;;2.88;;
4428;SDS011;2227;47.810;8.810;2022-07-04T18:16:14;6.88;;;2.70;;
4428;SDS011;2227;47.810;8.810;2022-07-04T18:18:40;5.60;;;2.88;;
4428;SDS011;2227;47.810;8.810;2022-07-04T18:21:07;5.65;;;3.30;;
4428;SDS011;2227;47.810;8.810;2022-07-04T18:23:34;3.75;;;2.92;;
4428;SDS011;2227;47.810;8.810;2022-07-04T18:26:01;5.72;;;2.83;;
4428;SDS011;2227;47.810;8.810;2022-07-04T18:28:28;5.88;;;3.20;;
4428;SDS011;2227;47.810;8.810;2022-07-04T18:31:02;6.45;;;3.10;;
4428;SDS011;2227;47.810;8.810;2022-07-04T18:33:29;5.57;;;3.33;;
4428;SDS011;2227;47.810;8.810;2022-07-04T18:35:56;5.50;;;3.60;;
4428;SDS011;2227;47.810;8.810;2022-07-04T18:38:23;5.38;;;3.50;;
4428;SDS011;2227;47.810;8.810;2022-07-04T18:40:50;5.78;;;3.90;;
4428;SDS011;2227;47.810;8.810;2022-07-04T18:43:37;7.97;;;3.50;;
4428;SDS011;2227;47.810;8.810;2022-07-04T18:46:04;7.07;;;3.50;;
4428;SDS011;2227;47.810;8.810;2022-07-04T18:48:32;8.15;;;3.70;;
4428;SDS011;2227;47.810;8.810;2022-07-04T18:51:01;4.88;;;3.45;;
4428;SDS011;2227;47.810;8.810;2022-07-04T18:53:30;8.80;;;3.72;;
4428;SDS011;2227;47.810;8.810;2022-07-04T18:55:58;6.90;;;3.20;;
4428;SDS011;2227;47.810;8.810;2022-07-04T18:58:25;5.70;;;3.47;;
4428;SDS011;2227;47.810;8.810;2022-07-04T19:00:55;5.00;;;3.45;;
4428;SDS011;2227;47.810;8.810;2022-07-04T19:03:22;8.23;;;3.60;;
4428;SDS011;2227;47.810;8.810;2022-07-04T19:05:51;6.65;;;3.30;;
4428;SDS011;2227;47.810;8.810;2022-07-04T19:08:17;5.03;;;3.75;;
4428;SDS011;2227;47.810;8.810;2022-07-04T19:10:44;6.90;;;3.88;;
4428;SDS011;2227;47.810;8.810;2022-07-04T19:13:11;6.10;;;3.40;;
4428;SDS011;2227;47.810;8.810;2022-07-04T19:15:38;6.68;;;3.55;;
4428;SDS011;2227;47.810;8.810;2022-07-04T19:18:06;4.57;;;3.38;;
4428;SDS011;2227;47.810;8.810;2022-07-04T19:20:34;5.30;;;3.20;;
4428;SDS011;2227;47.810;8.810;2022-07-04T19:23:01;4.97;;;3.30;;
4428;SDS011;2227;47.810;8.810;2022-07-04T19:25:31;4.78;;;2.75;;
4428;SDS011;2227;47.810;8.810;2022-07-04T19:28:17;4.93;;;3.28;;
4428;SDS011;2227;47.810;8.810;2022-07-04T19:30:44;6.90;;;3.53;;
4428;SDS011;2227;47.810;8.810;2022-07-04T19:33:16;6.85;;;3.28;;
4428;SDS011;2227;47.810;8.810;2022-07-04T19:35:44;5.25;;;3.08;;
4428;SDS011;2227;47.810;8.810;2022-07-04T19:38:10;7.38;;;3.35;;
4428;SDS011;2227;47.810;8.810;2022-07-04T19:40:37;6.25;;;3.63;;
4428;SDS011;2227;47.810;8.810;2022-07-04T19:43:04;5.03;;;3.65;;
4428;SDS011;2227;47.810;8.810;2022-07-04T19:45:38;6.47;;;3.42;;
4428;SDS011;2227;47.810;8.810;2022-07-04T19:48:05;7.72;;;3.85;;
4428;SDS011;2227;47.810;8.810;2022-07-04T19:50:32;6.22;;;3.58;;
4428;SDS011;2227;47.810;8.810;2022-07-04T19:52:58;7.28;;;3.85;;
4428;SDS011;2227;47.810;8.810;2022-07-04T19:55:27;7.93;;;3.55;;